Time;durP1;ratioP1;P1;durP2;ratioP2;P2;SDS_P1;SDS_P2;PMS_P1;PMS_P2;Temp;Humidity;BMP_temperature;BMP_pressure;BME280_temperature;BME280_humidity;BME280_pressure;Samples;Min_cycle;Max_cycle;Signal;HPM_P1;HPM_P2
2021/10/16 00:01:52;;;;;;;39.75;21.23;;;7.70;73.90;;;;;;5036958;28;20040;-36
2021/10/16 00:04:18;;;;;;;41.78;22.13;;;7.70;74.00;;;;;;5038064;28;20073;-35
2021/10/16 00:06:44;;;;;;;36.20;19.80;;;7.80;73.90;;;;;;5037956;28;20057;-35
2021/10/16 00:09:09;;;;;;;34.05;20.77;;;7.80;74.00;;;;;;5037812;28;20491;-37
2021/10/16 00:11:35;;;;;;;36.13;20.55;;;7.90;74.00;;;;;;5037398;28;20051;-36
2021/10/16 00:14:01;;;;;;;43.67;20.88;;;7.90;74.00;;;;;;5037900;28;20042;-39
2021/10/16 00:16:26;;;;;;;36.25;21.02;;;7.90;74.00;;;;;;5037546;28;20025;-38
2021/10/16 00:18:52;;;;;;;35.53;20.05;;;8.00;73.90;;;;;;5038040;28;20108;-35
2021/10/16 00:21:18;;;;;;;35.05;19.13;;;8.00;73.80;;;;;;5037327;28;20091;-35
2021/10/16 00:23:46;;;;;;;34.38;19.38;;;8.00;73.90;;;;;;5038296;28;20037;-35
2021/10/16 00:26:12;;;;;;;29.92;17.95;;;8.00;73.90;;;;;;5036813;28;20030;-35
2021/10/16 00:28:38;;;;;;;33.15;18.85;;;8.10;73.90;;;;;;5037860;28;20349;-38
2021/10/16 00:31:04;;;;;;;31.15;18.10;;;8.10;73.80;;;;;;5036504;28;20026;-35
2021/10/16 00:33:30;;;;;;;38.58;20.70;;;8.10;73.70;;;;;;5037841;28;20175;-39
2021/10/16 00:35:55;;;;;;;38.42;20.73;;;8.10;73.60;;;;;;5037625;28;20345;-38
2021/10/16 00:38:21;;;;;;;39.92;20.38;;;8.20;74.30;;;;;;5037370;28;20041;-38
2021/10/16 00:40:47;;;;;;;36.15;20.52;;;8.20;73.70;;;;;;5037349;28;20061;-36
2021/10/16 00:43:12;;;;;;;34.13;20.33;;;8.20;73.80;;;;;;5037520;28;20065;-39
2021/10/16 00:45:38;;;;;;;38.30;19.77;;;8.30;73.70;;;;;;5037487;28;20037;-37
2021/10/16 00:48:04;;;;;;;30.23;18.90;;;8.30;73.70;;;;;;5037295;28;20207;-36
2021/10/16 00:50:30;;;;;;;39.28;20.55;;;8.30;73.70;;;;;;5037422;28;20035;-35
2021/10/16 00:52:56;;;;;;;33.50;18.58;;;8.30;73.70;;;;;;5037110;28;20041;-39
2021/10/16 00:55:23;;;;;;;30.45;19.65;;;8.30;73.70;;;;;;5036941;28;20022;-35
2021/10/16 00:57:50;;;;;;;36.50;19.70;;;8.30;73.70;;;;;;5036836;28;20049;-35
2021/10/16 01:00:16;;;;;;;35.45;18.33;;;8.30;73.60;;;;;;5037070;28;20461;-36
2021/10/16 01:02:42;;;;;;;37.03;21.60;;;8.40;73.60;;;;;;5037073;28;20318;-38
2021/10/16 01:05:08;;;;;;;39.53;21.83;;;8.40;73.50;;;;;;5037024;28;20036;-37
2021/10/16 01:07:37;;;;;;;33.15;20.25;;;8.40;73.50;;;;;;5037183;28;20045;-38
2021/10/16 01:10:04;;;;;;;51.05;21.75;;;8.40;73.50;;;;;;5036949;28;20322;-38
2021/10/16 01:12:31;;;;;;;44.20;21.95;;;8.30;73.50;;;;;;5036650;28;20057;-38
2021/10/16 01:15:02;;;;;;;34.97;19.92;;;8.30;74.20;;;;;;5036825;28;20021;-35
2021/10/16 01:17:30;;;;;;;36.65;21.95;;;8.30;73.70;;;;;;5036685;28;20052;-39
2021/10/16 01:20:11;;;;;;;42.78;22.55;;;8.30;73.70;;;;;;5036480;28;20025;-37
2021/10/16 01:22:38;;;;;;;43.25;22.98;;;8.30;73.70;;;;;;5036655;28;20025;-36
2021/10/16 01:25:10;;;;;;;45.10;24.00;;;8.30;73.80;;;;;;5036482;28;20303;-36
2021/10/16 01:27:38;;;;;;;49.08;22.95;;;8.40;73.90;;;;;;5036391;28;20033;-36
2021/10/16 01:30:05;;;;;;;43.58;21.58;;;8.30;73.80;;;;;;5036107;28;20033;-39
2021/10/16 01:32:31;;;;;;;40.80;20.08;;;8.40;73.80;;;;;;5036346;28;20120;-35
2021/10/16 01:34:56;;;;;;;52.38;22.85;;;8.40;73.80;;;;;;5036295;28;20183;-36
2021/10/16 01:37:22;;;;;;;47.53;22.05;;;8.50;73.80;;;;;;5035882;28;20033;-38
2021/10/16 01:39:48;;;;;;;46.30;21.23;;;8.50;73.80;;;;;;5035995;28;20033;-35
2021/10/16 01:42:14;;;;;;;37.08;21.88;;;8.50;73.80;;;;;;5035677;28;20423;-39
2021/10/16 01:44:43;;;;;;;34.97;19.42;;;8.50;73.80;;;;;;5036009;28;20029;-35
2021/10/16 01:47:09;;;;;;;34.40;21.30;;;8.60;73.70;;;;;;5035820;28;20036;-38
2021/10/16 01:49:36;;;;;;;43.58;23.08;;;8.60;73.60;;;;;;5036288;28;20033;-37
2021/10/16 01:52:03;;;;;;;37.25;21.10;;;8.60;73.60;;;;;;5035818;28;20121;-37
2021/10/16 01:54:28;;;;;;;44.90;21.55;;;8.60;73.50;;;;;;5035851;28;20430;-36
2021/10/16 01:56:55;;;;;;;57.13;28.42;;;8.60;73.50;;;;;;5035750;28;20041;-39
2021/10/16 01:59:22;;;;;;;45.83;28.50;;;8.70;73.60;;;;;;5035754;28;20032;-39
2021/10/16 02:01:48;;;;;;;45.08;25.88;;;8.70;73.50;;;;;;5035692;28;20095;-37
2021/10/16 02:04:15;;;;;;;42.28;21.90;;;8.70;73.40;;;;;;5035561;28;20116;-38
2021/10/16 02:06:41;;;;;;;39.03;21.33;;;8.70;73.40;;;;;;5035868;28;20375;-38
2021/10/16 02:09:08;;;;;;;34.38;19.80;;;8.80;73.40;;;;;;5035925;28;20436;-35
2021/10/16 02:11:34;;;;;;;46.08;21.63;;;8.80;73.50;;;;;;5035771;28;20041;-38
2021/10/16 02:14:00;;;;;;;48.03;21.73;;;8.80;73.50;;;;;;5035839;28;20025;-38
2021/10/16 02:16:27;;;;;;;37.28;19.90;;;8.80;73.50;;;;;;5035238;28;20037;-38
2021/10/16 02:18:53;;;;;;;42.85;21.27;;;8.80;73.60;;;;;;5035761;28;20029;-36
2021/10/16 02:21:19;;;;;;;37.83;19.27;;;8.80;73.70;;;;;;5035343;28;20029;-37
2021/10/16 02:23:45;;;;;;;49.15;20.92;;;8.80;73.70;;;;;;5036201;28;20425;-35
2021/10/16 02:26:11;;;;;;;41.97;20.10;;;8.80;73.70;;;;;;5035210;28;20033;-39
2021/10/16 02:28:36;;;;;;;58.47;20.48;;;8.80;73.70;;;;;;5036134;28;20033;-38
2021/10/16 02:31:02;;;;;;;36.50;20.33;;;8.80;73.70;;;;;;5035257;28;20352;-37
2021/10/16 02:33:28;;;;;;;41.75;18.80;;;8.90;73.80;;;;;;5035576;28;20083;-38
2021/10/16 02:35:53;;;;;;;38.60;19.58;;;8.90;73.70;;;;;;5035725;28;20029;-36
2021/10/16 02:38:19;;;;;;;31.77;18.98;;;8.90;73.70;;;;;;5035498;28;20038;-37
2021/10/16 02:40:45;;;;;;;38.08;19.95;;;8.90;73.60;;;;;;5035436;28;20107;-35
2021/10/16 02:43:10;;;;;;;49.67;20.58;;;9.00;73.60;;;;;;5035614;28;20033;-38
2021/10/16 02:45:36;;;;;;;41.13;20.40;;;9.00;73.60;;;;;;5035325;28;20034;-36
2021/10/16 02:48:02;;;;;;;49.78;18.20;;;9.00;73.60;;;;;;5035429;28;20041;-36
2021/10/16 02:50:27;;;;;;;43.17;23.70;;;8.90;73.50;;;;;;5037549;28;20337;-38
2021/10/16 02:52:53;;;;;;;62.53;24.70;;;9.00;73.50;;;;;;5039487;28;20494;-36
2021/10/16 02:55:19;;;;;;;56.70;23.85;;;9.00;73.60;;;;;;5039450;28;20440;-36
2021/10/16 02:57:45;;;;;;;47.55;22.65;;;9.00;73.60;;;;;;5039159;28;20212;-39
2021/10/16 03:00:11;;;;;;;51.60;23.63;;;9.00;73.60;;;;;;5039094;28;20021;-36
2021/10/16 03:02:38;;;;;;;42.67;22.33;;;9.00;73.50;;;;;;5039341;28;20390;-36
2021/10/16 03:05:05;;;;;;;44.47;22.17;;;9.00;73.50;;;;;;5038986;28;20233;-39
2021/10/16 03:07:30;;;;;;;57.13;27.95;;;9.00;73.50;;;;;;5038927;28;20418;-38
2021/10/16 03:09:57;;;;;;;54.22;26.33;;;9.00;73.50;;;;;;5038991;28;20118;-36
2021/10/16 03:12:23;;;;;;;50.15;26.40;;;9.00;73.50;;;;;;5038518;28;20390;-38
2021/10/16 03:14:48;;;;;;;56.03;26.00;;;8.90;73.50;;;;;;5038835;28;20026;-36
2021/10/16 03:17:14;;;;;;;91.95;27.80;;;8.90;73.60;;;;;;5038757;28;20037;-35
2021/10/16 03:19:40;;;;;;;67.45;25.45;;;8.90;73.70;;;;;;5038418;28;20025;-37
2021/10/16 03:22:07;;;;;;;50.90;22.65;;;8.90;73.60;;;;;;5038775;28;20103;-35
2021/10/16 03:24:34;;;;;;;38.72;21.63;;;8.90;73.70;;;;;;5038789;28;20060;-39
2021/10/16 03:27:00;;;;;;;35.17;20.65;;;8.90;73.80;;;;;;5038626;28;20104;-37
2021/10/16 03:29:25;;;;;;;37.63;18.05;;;8.90;74.30;;;;;;5037830;28;20406;-38
2021/10/16 03:31:51;;;;;;;71.40;27.10;;;8.90;73.80;;;;;;5038442;28;20088;-39
2021/10/16 03:34:17;;;;;;;47.75;21.00;;;8.90;73.70;;;;;;5038297;28;20080;-39
2021/10/16 03:36:43;;;;;;;47.67;22.77;;;8.90;73.80;;;;;;5038308;28;20026;-40
2021/10/16 03:39:08;;;;;;;44.92;20.27;;;8.90;73.80;;;;;;5038211;28;20025;-39
2021/10/16 03:41:34;;;;;;;44.20;19.67;;;8.90;73.80;;;;;;5038158;28;20247;-34
2021/10/16 03:44:00;;;;;;;42.85;21.27;;;8.90;73.80;;;;;;5038643;28;20085;-35
2021/10/16 03:46:25;;;;;;;32.13;19.52;;;8.90;74.00;;;;;;5038005;28;20044;-35
2021/10/16 03:48:51;;;;;;;42.45;20.92;;;8.90;74.00;;;;;;5038308;28;20038;-36
2021/10/16 03:51:16;;;;;;;47.85;23.42;;;8.90;74.00;;;;;;5037801;28;20030;-39
2021/10/16 03:53:42;;;;;;;65.03;23.90;;;9.00;74.20;;;;;;5038822;28;20119;-36
2021/10/16 03:56:08;;;;;;;47.83;21.23;;;9.00;74.10;;;;;;5037700;28;20038;-36
2021/10/16 03:58:33;;;;;;;58.75;20.40;;;9.00;74.20;;;;;;5038347;28;20461;-38
2021/10/16 04:01:01;;;;;;;93.35;24.92;;;9.00;74.10;;;;;;5037853;28;20025;-36
2021/10/16 04:03:27;;;;;;;71.93;22.98;;;9.00;74.10;;;;;;5037832;28;20041;-36
2021/10/16 04:05:53;;;;;;;71.00;23.38;;;9.00;74.20;;;;;;5037676;28;20032;-36
2021/10/16 04:08:18;;;;;;;57.72;22.92;;;9.00;74.20;;;;;;5038017;28;20037;-35
2021/10/16 04:10:45;;;;;;;39.00;20.67;;;9.10;74.10;;;;;;5037740;28;20033;-36
2021/10/16 04:13:11;;;;;;;41.92;19.20;;;9.10;73.90;;;;;;5037786;28;20051;-38
2021/10/16 04:15:37;;;;;;;49.40;21.38;;;9.10;73.90;;;;;;5037844;28;20036;-38
2021/10/16 04:18:03;;;;;;;44.28;20.70;;;9.10;73.90;;;;;;5037589;28;20042;-35
2021/10/16 04:20:29;;;;;;;41.75;20.17;;;9.10;73.90;;;;;;5037706;28;20025;-35
2021/10/16 04:22:55;;;;;;;39.03;20.35;;;9.10;73.90;;;;;;5037915;28;20040;-35
2021/10/16 04:25:21;;;;;;;35.08;18.80;;;9.10;74.00;;;;;;5037725;28;20076;-35
2021/10/16 04:27:47;;;;;;;52.05;22.05;;;9.10;74.00;;;;;;5037849;28;20041;-39
2021/10/16 04:30:13;;;;;;;31.85;18.27;;;9.10;73.90;;;;;;5037552;28;20381;-38
2021/10/16 04:32:39;;;;;;;43.63;19.10;;;9.10;73.80;;;;;;5037435;28;20061;-39
2021/10/16 04:35:06;;;;;;;44.15;19.20;;;9.10;73.90;;;;;;5037521;28;20029;-38
2021/10/16 04:37:33;;;;;;;39.75;20.33;;;9.10;73.90;;;;;;5037395;28;20397;-38
2021/10/16 04:39:59;;;;;;;58.20;22.23;;;9.20;74.00;;;;;;5037476;28;20034;-35
2021/10/16 04:42:25;;;;;;;35.90;21.70;;;9.20;74.00;;;;;;5037197;28;20340;-36
2021/10/16 04:44:51;;;;;;;58.80;21.08;;;9.20;73.90;;;;;;5037086;28;20168;-36
2021/10/16 04:47:17;;;;;;;56.85;22.52;;;9.20;74.00;;;;;;5036952;28;20040;-38
2021/10/16 04:49:42;;;;;;;51.60;23.55;;;9.20;73.90;;;;;;5036902;28;20053;-35
2021/10/16 04:52:08;;;;;;;47.08;23.00;;;9.30;73.90;;;;;;5036893;28;20070;-37
2021/10/16 04:54:34;;;;;;;52.33;24.77;;;9.30;73.70;;;;;;5037169;28;20116;-37
2021/10/16 04:57:00;;;;;;;67.75;24.27;;;9.30;73.50;;;;;;5051797;28;20103;-39
2021/10/16 04:59:25;;;;;;;87.43;28.65;;;9.40;73.40;;;;;;5042972;28;20052;-37
2021/10/16 05:01:54;;;;;;;59.03;28.02;;;9.40;73.30;;;;;;5051459;28;20302;-36
2021/10/16 05:04:20;;;;;;;44.38;24.08;;;9.40;73.20;;;;;;5056648;28;20033;-39
2021/10/16 05:06:46;;;;;;;67.45;28.05;;;9.40;73.30;;;;;;5056440;28;20043;-35
2021/10/16 05:09:11;;;;;;;68.80;30.83;;;9.50;73.30;;;;;;5056485;28;20032;-35
2021/10/16 05:11:37;;;;;;;61.20;29.98;;;9.50;73.30;;;;;;5056384;28;20447;-38
2021/10/16 05:14:03;;;;;;;64.70;31.75;;;9.50;73.00;;;;;;5056196;28;20021;-35
2021/10/16 05:16:30;;;;;;;81.50;33.85;;;9.50;72.90;;;;;;5055709;28;20025;-39
2021/10/16 05:18:56;;;;;;;83.78;34.25;;;9.50;72.90;;;;;;5056595;28;20333;-39
2021/10/16 05:21:21;;;;;;;68.20;29.52;;;9.50;73.00;;;;;;5055671;28;20025;-35
2021/10/16 05:23:47;;;;;;;65.88;29.50;;;9.50;73.00;;;;;;5056854;28;20032;-38
2021/10/16 05:26:12;;;;;;;61.45;28.70;;;9.50;72.80;;;;;;5056281;28;20056;-35
2021/10/16 05:28:38;;;;;;;64.38;30.42;;;9.60;72.70;;;;;;5045151;28;20045;-35
2021/10/16 05:31:04;;;;;;;60.17;30.25;;;9.60;72.60;;;;;;5035864;28;20029;-39
2021/10/16 05:33:29;;;;;;;61.65;29.52;;;9.70;72.70;;;;;;5036561;28;20021;-39
2021/10/16 05:35:55;;;;;;;59.20;29.80;;;9.70;72.60;;;;;;5036340;28;20065;-35
2021/10/16 05:38:21;;;;;;;76.30;29.75;;;9.70;72.50;;;;;;5036018;28;20415;-35
2021/10/16 05:40:46;;;;;;;57.22;27.02;;;9.70;72.40;;;;;;5035870;28;20100;-36
2021/10/16 05:43:12;;;;;;;59.45;30.00;;;9.80;72.50;;;;;;5036092;28;20142;-35
2021/10/16 05:45:38;;;;;;;66.75;29.17;;;9.80;72.40;;;;;;5035997;28;20038;-35
2021/10/16 05:48:04;;;;;;;59.20;27.52;;;9.80;72.40;;;;;;5036123;28;20036;-35
2021/10/16 05:50:31;;;;;;;51.15;28.95;;;9.80;72.40;;;;;;5035848;28;20418;-36
2021/10/16 05:52:57;;;;;;;42.25;24.42;;;9.90;72.40;;;;;;5035606;28;20440;-35
2021/10/16 05:55:22;;;;;;;55.15;25.42;;;9.90;72.40;;;;;;5035781;28;20033;-36
2021/10/16 05:57:48;;;;;;;59.78;28.98;;;10.00;72.50;;;;;;5035688;28;20048;-36
2021/10/16 06:00:14;;;;;;;53.60;27.02;;;10.00;72.40;;;;;;5035850;28;20022;-38
2021/10/16 06:02:40;;;;;;;58.00;29.60;;;10.10;72.40;;;;;;5035786;28;20033;-35
2021/10/16 06:05:06;;;;;;;40.08;24.35;;;10.10;72.40;;;;;;5035488;28;20026;-36
2021/10/16 06:07:32;;;;;;;60.03;25.05;;;10.20;72.70;;;;;;5035547;28;20429;-35
2021/10/16 06:09:58;;;;;;;67.40;26.00;;;10.20;71.80;;;;;;5035540;28;20033;-35
2021/10/16 06:12:23;;;;;;;35.00;22.20;;;10.20;71.40;;;;;;5035364;28;20099;-35
2021/10/16 06:14:49;;;;;;;41.80;21.90;;;10.30;71.10;;;;;;5035232;28;20025;-38
2021/10/16 06:17:15;;;;;;;38.28;22.35;;;10.30;70.90;;;;;;5035192;28;20034;-39
2021/10/16 06:19:41;;;;;;;44.30;21.95;;;10.30;71.30;;;;;;5035094;28;20051;-40
2021/10/16 06:22:07;;;;;;;47.22;23.50;;;10.40;70.60;;;;;;5035278;28;20380;-36
2021/10/16 06:24:32;;;;;;;48.15;21.70;;;10.40;70.60;;;;;;5034359;28;20104;-35
2021/10/16 06:26:58;;;;;;;41.17;23.30;;;10.40;70.60;;;;;;5035376;28;20072;-35
2021/10/16 06:29:24;;;;;;;48.50;23.08;;;10.50;71.00;;;;;;5035119;28;20065;-38
2021/10/16 06:31:49;;;;;;;45.92;24.08;;;10.50;70.40;;;;;;5035025;28;20048;-38
2021/10/16 06:34:15;;;;;;;49.05;25.33;;;10.50;70.40;;;;;;5034983;28;20029;-35
2021/10/16 06:36:41;;;;;;;48.97;26.40;;;10.50;70.30;;;;;;5035030;28;20105;-38
2021/10/16 06:39:06;;;;;;;52.50;25.90;;;10.60;70.40;;;;;;5035106;28;20025;-39
2021/10/16 06:41:32;;;;;;;46.25;25.17;;;10.60;70.40;;;;;;5035363;28;20034;-35
2021/10/16 06:43:57;;;;;;;61.17;26.95;;;10.60;70.30;;;;;;5035477;28;20104;-36
2021/10/16 06:46:24;;;;;;;57.80;26.85;;;10.60;70.40;;;;;;5034737;28;20056;-37
2021/10/16 06:48:50;;;;;;;41.58;23.98;;;10.70;70.40;;;;;;5035584;28;20033;-38
2021/10/16 06:51:15;;;;;;;49.47;24.63;;;10.70;70.40;;;;;;5034810;28;20467;-38
2021/10/16 06:53:41;;;;;;;54.85;25.38;;;10.70;70.30;;;;;;5035454;28;20026;-34
2021/10/16 06:56:07;;;;;;;47.42;24.67;;;10.80;70.40;;;;;;5034707;28;20037;-35
2021/10/16 06:58:32;;;;;;;51.13;24.25;;;10.80;70.40;;;;;;5034720;28;20295;-35
2021/10/16 07:00:58;;;;;;;45.97;24.45;;;10.80;70.40;;;;;;5034649;28;20069;-35
2021/10/16 07:03:24;;;;;;;45.08;24.48;;;10.90;70.40;;;;;;5035029;28;20037;-37
2021/10/16 07:05:49;;;;;;;58.00;26.88;;;10.90;70.40;;;;;;5034992;28;20394;-36
2021/10/16 07:08:15;;;;;;;42.72;25.35;;;10.90;70.40;;;;;;5034736;28;20044;-35
2021/10/16 07:10:42;;;;;;;53.15;26.80;;;10.90;70.50;;;;;;5034827;28;20108;-35
2021/10/16 07:13:09;;;;;;;51.70;27.85;;;10.90;70.70;;;;;;5034809;28;20041;-35
2021/10/16 07:15:35;;;;;;;59.63;26.58;;;10.90;70.90;;;;;;5034483;28;20452;-36
2021/10/16 07:18:00;;;;;;;50.92;26.27;;;11.00;70.90;;;;;;5034739;28;20029;-37
2021/10/16 07:20:26;;;;;;;52.67;28.20;;;11.00;70.80;;;;;;5034829;28;20053;-38
2021/10/16 07:22:54;;;;;;;58.17;27.85;;;11.00;70.70;;;;;;5034974;28;20287;-35
2021/10/16 07:25:20;;;;;;;74.85;33.42;;;11.00;70.70;;;;;;5034862;28;20033;-36
2021/10/16 07:27:46;;;;;;;58.45;27.38;;;11.00;70.70;;;;;;5034946;28;20117;-40
2021/10/16 07:30:12;;;;;;;63.45;30.52;;;11.00;70.70;;;;;;5034793;28;20053;-36
2021/10/16 07:32:37;;;;;;;51.80;30.30;;;11.00;70.70;;;;;;5034592;28;20032;-39
2021/10/16 07:35:03;;;;;;;70.10;34.13;;;11.00;70.70;;;;;;5034557;28;20021;-39
2021/10/16 07:37:29;;;;;;;53.00;31.55;;;11.00;70.70;;;;;;5038137;28;20021;-36
2021/10/16 07:39:54;;;;;;;60.03;31.98;;;11.00;70.70;;;;;;5038239;28;20030;-36
2021/10/16 07:42:20;;;;;;;73.95;32.65;;;11.00;70.90;;;;;;5038339;28;20037;-36
2021/10/16 07:44:46;;;;;;;59.15;32.08;;;11.00;71.00;;;;;;5038097;28;20041;-36
2021/10/16 07:47:11;;;;;;;59.08;31.45;;;11.10;71.10;;;;;;5037987;28;20040;-36
2021/10/16 07:49:37;;;;;;;67.03;30.60;;;11.10;71.20;;;;;;5037809;28;20033;-40
2021/10/16 07:52:03;;;;;;;54.88;29.73;;;11.10;71.80;;;;;;5037975;28;20119;-36
2021/10/16 07:54:28;;;;;;;61.13;31.90;;;11.10;71.30;;;;;;5037688;28;20025;-39
2021/10/16 07:56:54;;;;;;;59.83;30.48;;;11.10;71.20;;;;;;5037583;28;20053;-36
2021/10/16 07:59:19;;;;;;;49.45;29.58;;;11.10;71.20;;;;;;5037623;28;20087;-39
2021/10/16 08:01:45;;;;;;;66.45;30.60;;;11.10;71.10;;;;;;5037906;28;20052;-35
2021/10/16 08:04:11;;;;;;;61.28;30.70;;;11.20;71.10;;;;;;5053966;28;20033;-41
2021/10/16 08:06:36;;;;;;;56.97;27.15;;;11.20;71.30;;;;;;5057901;28;20328;-39
2021/10/16 08:09:03;;;;;;;76.80;33.00;;;11.20;71.40;;;;;;5058282;28;20059;-38
2021/10/16 08:11:29;;;;;;;56.47;27.25;;;11.20;71.30;;;;;;5057487;28;20033;-38
2021/10/16 08:13:55;;;;;;;52.78;24.45;;;11.30;71.30;;;;;;5058020;28;20043;-36
2021/10/16 08:16:20;;;;;;;45.15;24.20;;;11.30;71.30;;;;;;5053049;28;20032;-39
2021/10/16 08:18:46;;;;;;;47.42;26.67;;;11.30;71.20;;;;;;5045012;28;20441;-36
2021/10/16 08:21:12;;;;;;;48.60;24.83;;;11.40;71.10;;;;;;5037187;28;20029;-36
2021/10/16 08:23:37;;;;;;;60.35;28.30;;;11.40;70.90;;;;;;5037977;28;20075;-39
2021/10/16 08:26:03;;;;;;;45.65;23.15;;;11.50;70.80;;;;;;5037004;28;20072;-36
2021/10/16 08:28:31;;;;;;;39.20;23.17;;;11.50;70.70;;;;;;5037450;28;20112;-39
2021/10/16 08:30:58;;;;;;;51.25;23.33;;;11.50;70.70;;;;;;5037440;28;20053;-39
2021/10/16 08:33:25;;;;;;;39.63;24.15;;;11.60;70.40;;;;;;5037354;28;20049;-38
2021/10/16 08:35:50;;;;;;;49.63;25.58;;;11.60;70.20;;;;;;5037296;28;20029;-39
2021/10/16 08:38:17;;;;;;;54.92;26.00;;;11.70;70.20;;;;;;5037365;28;20061;-40
2021/10/16 08:40:43;;;;;;;41.38;24.55;;;11.70;70.20;;;;;;5037213;28;20017;-40
2021/10/16 08:43:09;;;;;;;51.45;25.52;;;11.70;70.00;;;;;;5037310;28;20056;-40
2021/10/16 08:45:36;;;;;;;46.78;25.38;;;11.80;69.90;;;;;;5037049;28;20437;-40
2021/10/16 08:48:06;;;;;;;57.35;26.25;;;11.80;70.10;;;;;;5036125;28;20061;-40
2021/10/16 08:50:34;;;;;;;51.33;25.55;;;11.90;69.50;;;;;;5036978;28;20040;-36
2021/10/16 08:53:00;;;;;;;42.15;24.88;;;11.90;69.50;;;;;;5036878;28;20045;-39
2021/10/16 08:55:26;;;;;;;41.70;24.45;;;11.90;69.30;;;;;;5036683;28;20033;-35
2021/10/16 08:57:51;;;;;;;66.32;26.58;;;11.90;69.50;;;;;;5036743;28;20052;-36
2021/10/16 09:00:36;;;;;;;56.15;26.45;;;11.90;69.60;;;;;;5036538;28;20021;-36
2021/10/16 09:03:14;;;;;;;42.67;22.88;;;12.00;69.70;;;;;;5036972;28;20112;-36
2021/10/16 09:05:39;;;;;;;51.35;25.30;;;12.00;69.70;;;;;;5036354;28;20065;-35
2021/10/16 09:08:05;;;;;;;38.10;22.02;;;12.00;70.20;;;;;;5036673;28;20119;-36
2021/10/16 09:10:31;;;;;;;40.65;24.48;;;12.10;69.50;;;;;;5035488;28;20042;-36
2021/10/16 09:12:57;;;;;;;39.40;23.73;;;12.10;69.30;;;;;;5036422;28;20087;-39
2021/10/16 09:15:24;;;;;;;51.05;27.65;;;12.10;69.30;;;;;;5036425;28;20025;-36
2021/10/16 09:18:04;;;;;;;32.47;20.85;;;12.10;69.70;;;;;;5036754;28;20057;-36
2021/10/16 09:20:37;;;;;;;35.80;22.40;;;12.20;69.50;;;;;;5036234;28;20109;-36
2021/10/16 09:23:09;;;;;;;33.00;22.92;;;12.20;69.70;;;;;;5036511;28;20040;-39
2021/10/16 09:25:35;;;;;;;50.03;26.67;;;12.30;69.90;;;;;;5036358;28;20108;-39
2021/10/16 09:28:18;;;;;;;43.72;24.77;;;12.30;70.00;;;;;;5036121;28;20457;-39
2021/10/16 09:30:48;;;;;;;42.70;24.33;;;12.40;69.90;;;;;;5036091;28;20123;-36
2021/10/16 09:33:14;;;;;;;40.30;23.73;;;12.40;69.80;;;;;;5036389;28;20322;-40
2021/10/16 09:35:40;;;;;;;42.90;23.70;;;12.40;69.70;;;;;;5036408;28;20028;-36
2021/10/16 09:38:06;;;;;;;69.88;25.42;;;12.50;69.40;;;;;;5036165;28;20033;-38
2021/10/16 09:40:40;;;;;;;42.50;25.50;;;12.50;69.50;;;;;;5034941;28;20057;-35
2021/10/16 09:43:19;;;;;;;56.42;26.83;;;12.60;69.50;;;;;;5035797;28;20329;-38
2021/10/16 09:45:46;;;;;;;48.28;26.33;;;12.70;69.10;;;;;;5035999;28;20025;-35
2021/10/16 09:48:11;;;;;;;32.53;20.27;;;12.70;69.30;;;;;;5036025;28;20329;-39
2021/10/16 09:50:37;;;;;;;40.20;22.05;;;12.80;69.20;;;;;;5036082;28;20025;-35
2021/10/16 09:53:23;;;;;;;39.53;21.20;;;12.80;69.10;;;;;;5035584;28;20470;-35
2021/10/16 09:55:49;;;;;;;33.63;21.52;;;12.90;69.10;;;;;;5035418;28;20344;-39
2021/10/16 09:58:16;;;;;;;31.13;20.25;;;13.00;69.20;;;;;;5036993;28;20140;-37
2021/10/16 10:00:42;;;;;;;29.92;19.20;;;13.10;69.10;;;;;;5044367;28;20034;-36
2021/10/16 10:03:12;;;;;;;34.53;19.85;;;13.20;68.70;;;;;;5035783;28;20049;-37
2021/10/16 10:05:39;;;;;;;43.05;23.45;;;13.30;68.70;;;;;;5035696;28;20128;-36
2021/10/16 10:08:05;;;;;;;33.50;21.52;;;13.50;68.70;;;;;;5035745;28;20456;-40
2021/10/16 10:10:31;;;;;;;39.78;21.52;;;13.60;68.50;;;;;;5034304;28;20057;-35
2021/10/16 10:12:57;;;;;;;33.33;21.33;;;13.70;68.00;;;;;;5035569;28;20059;-38
2021/10/16 10:15:23;;;;;;;32.17;19.73;;;13.80;67.80;;;;;;5035267;28;20041;-36
2021/10/16 10:17:49;;;;;;;34.05;20.98;;;13.90;67.50;;;;;;5035610;28;20029;-36
2021/10/16 10:20:16;;;;;;;42.25;26.90;;;14.00;67.30;;;;;;5034643;28;20410;-36
2021/10/16 10:22:44;;;;;;;51.38;29.20;;;14.10;67.30;;;;;;5035379;28;20409;-39
2021/10/16 10:25:25;;;;;;;46.47;26.55;;;14.20;67.30;;;;;;5035151;28;20421;-40
2021/10/16 10:27:53;;;;;;;49.10;25.63;;;14.30;66.90;;;;;;5035314;28;20040;-39
2021/10/16 10:30:34;;;;;;;39.28;25.10;;;14.40;66.70;;;;;;5034758;28;20119;-36
2021/10/16 10:33:15;;;;;;;42.20;25.73;;;14.50;66.50;;;;;;5035337;28;20030;-40
2021/10/16 10:35:46;;;;;;;;;;;14.50;66.20;;;;;;5035992;28;20491;-35
2021/10/16 10:38:41;;;;;;;39.67;25.92;;;14.60;66.50;;;;;;5033777;28;20306;-40
2021/10/16 10:41:21;;;;;;;39.22;24.55;;;14.60;66.00;;;;;;5034740;28;20021;-40
2021/10/16 10:43:47;;;;;;;55.80;31.55;;;14.60;65.90;;;;;;5035708;28;20079;-37
2021/10/16 10:46:13;;;;;;;53.90;31.20;;;14.60;65.90;;;;;;5034731;28;20438;-39
2021/10/16 10:48:44;;;;;;;60.00;36.00;;;14.70;65.60;;;;;;5035632;28;20327;-36
2021/10/16 10:51:10;;;;;;;56.53;32.55;;;14.70;65.10;;;;;;5035125;28;20025;-36
2021/10/16 10:53:38;;;;;;;64.70;37.30;;;14.70;65.10;;;;;;5035472;28;20080;-40
2021/10/16 10:56:19;;;;;;;63.70;38.65;;;14.70;65.10;;;;;;5034548;28;20041;-37
2021/10/16 10:58:57;;;;;;;58.90;35.58;;;14.70;64.90;;;;;;5035286;28;20033;-40
2021/10/16 11:01:42;;;;;;;58.97;35.22;;;14.70;65.00;;;;;;5034852;28;20033;-40
2021/10/16 11:04:08;;;;;;;60.63;36.60;;;14.70;65.00;;;;;;5034800;28;20041;-39
2021/10/16 11:06:34;;;;;;;60.58;34.03;;;14.70;64.60;;;;;;5034824;28;20021;-40
2021/10/16 11:09:18;;;;;;;59.58;35.50;;;14.70;64.60;;;;;;5035277;28;20022;-36
2021/10/16 11:11:48;;;;;;;64.47;38.15;;;14.70;64.80;;;;;;5036878;28;20034;-39
2021/10/16 11:14:14;;;;;;;59.13;36.30;;;14.60;64.90;;;;;;5038600;28;20066;-35
2021/10/16 11:16:56;;;;;;;65.60;36.70;;;14.60;65.00;;;;;;5038317;28;20028;-36
2021/10/16 11:19:22;;;;;;;73.03;38.58;;;14.50;64.90;;;;;;5038510;28;20022;-39
2021/10/16 11:21:52;;;;;;;60.85;36.85;;;14.40;64.90;;;;;;5049464;28;20044;-39
2021/10/16 11:24:19;;;;;;;79.93;41.17;;;14.40;65.10;;;;;;5038504;28;20033;-39
2021/10/16 11:26:57;;;;;;;62.00;33.90;;;14.40;65.20;;;;;;5038313;28;20501;-36
2021/10/16 11:29:30;;;;;;;57.60;35.30;;;14.30;64.90;;;;;;5038291;28;20588;-38
2021/10/16 11:32:19;;;;;;;54.05;33.63;;;14.20;65.30;;;;;;5038196;28;20426;-40
2021/10/16 11:35:05;;;;;;;60.30;34.53;;;14.20;65.20;;;;;;5038243;28;20357;-39
2021/10/16 11:37:45;;;;;;;49.72;30.55;;;14.20;65.40;;;;;;5038323;28;20033;-39
2021/10/16 11:40:17;;;;;;;51.65;31.58;;;14.10;65.40;;;;;;5038123;28;20310;-39
2021/10/16 11:42:46;;;;;;;48.25;29.77;;;14.10;65.30;;;;;;5038239;28;20041;-39
2021/10/16 11:45:14;;;;;;;53.03;30.15;;;14.10;65.30;;;;;;5038285;28;20157;-39
2021/10/16 11:47:44;;;;;;;45.42;27.75;;;14.00;65.30;;;;;;5038234;28;20041;-39
2021/10/16 11:50:17;;;;;;;47.50;29.08;;;14.00;65.30;;;;;;5037945;28;20326;-39
2021/10/16 11:53:03;;;;;;;43.35;28.15;;;14.00;65.30;;;;;;5037921;28;20401;-36
2021/10/16 11:55:29;;;;;;;40.80;28.33;;;13.90;65.40;;;;;;5036541;28;20024;-39
2021/10/16 11:58:02;;;;;;;48.53;28.95;;;13.90;65.40;;;;;;5037886;28;20058;-39
2021/10/16 12:00:28;;;;;;;45.50;27.80;;;13.90;65.50;;;;;;5037633;28;20452;-39
2021/10/16 12:02:56;;;;;;;47.20;26.90;;;13.80;65.80;;;;;;5037871;28;20517;-39
2021/10/16 12:05:24;;;;;;;46.63;29.88;;;13.80;66.00;;;;;;5038006;28;20053;-39
2021/10/16 12:07:51;;;;;;;47.42;27.95;;;13.80;66.10;;;;;;5037851;28;20039;-39
2021/10/16 12:10:28;;;;;;;42.80;27.63;;;13.80;66.20;;;;;;5037774;28;20026;-39
2021/10/16 12:13:03;;;;;;;44.58;27.02;;;13.80;66.20;;;;;;5037875;28;20100;-38
2021/10/16 12:15:54;;;;;;;77.85;29.13;;;13.70;66.30;;;;;;5036768;28;20021;-36
2021/10/16 12:18:24;;;;;;;44.38;26.67;;;13.70;66.50;;;;;;5037525;28;20033;-36
2021/10/16 12:21:01;;;;;;;38.85;24.90;;;13.70;66.50;;;;;;5037320;28;20048;-36
2021/10/16 12:23:46;;;;;;;39.20;25.00;;;13.70;66.40;;;;;;5036395;28;20045;-36
2021/10/16 12:26:20;;;;;;;41.72;23.92;;;13.70;66.30;;;;;;5037245;28;20203;-36
2021/10/16 12:28:47;;;;;;;39.08;24.17;;;13.70;66.40;;;;;;5037954;28;20445;-35
2021/10/16 12:31:13;;;;;;;40.13;25.52;;;13.70;66.50;;;;;;5036820;28;20087;-39
2021/10/16 12:33:59;;;;;;;39.17;25.95;;;13.70;66.50;;;;;;5037666;28;20060;-40
2021/10/16 12:36:43;;;;;;;37.22;23.85;;;13.70;66.40;;;;;;5036911;28;20040;-39